Time;durP1;ratioP1;P1;durP2;ratioP2;P2;SDS_P1;SDS_P2;PMS_P1;PMS_P2;Temp;Humidity;BMP_temperature;BMP_pressure;BME280_temperature;BME280_humidity;BME280_pressure;Samples;Min_cycle;Max_cycle;Signal;HPM_P1;HPM_P2
2021/01/05 00:00:31;;;;;;;48.17;15.60;;;;;;;;;;5057565;28;20230;-74
2021/01/05 00:03:36;;;;;;;41.37;14.67;;;;;;;;;;5053796;28;20211;-75
2021/01/05 00:06:42;;;;;;;43.67;14.37;;;;;;;;;;5062283;28;20208;-75
2021/01/05 00:09:46;;;;;;;43.73;14.37;;;;;;;;;;5047074;28;20230;-75
2021/01/05 00:12:53;;;;;;;48.27;15.03;;;;;;;;;;5032545;28;20230;-75
2021/01/05 00:15:58;;;;;;;49.80;15.60;;;;;;;;;;5047124;28;20366;-75
2021/01/05 00:19:02;;;;;;;42.70;14.67;;;;;;;;;;5042927;28;20266;-75
2021/01/05 00:22:07;;;;;;;50.03;15.37;;;;;;;;;;5043412;28;20230;-75
2021/01/05 00:25:13;;;;;;;43.53;14.93;;;;;;;;;;5029279;28;20265;-75
2021/01/05 00:28:19;;;;;;;46.43;15.00;;;;;;;;;;5040358;28;20206;-75
2021/01/05 00:31:23;;;;;;;43.17;15.80;;;;;;;;;;5042154;28;20599;-75
2021/01/05 00:34:28;;;;;;;45.20;15.57;;;;;;;;;;5040805;28;20705;-76
2021/01/05 00:37:32;;;;;;;47.93;15.53;;;;;;;;;;5050220;28;20219;-75
2021/01/05 00:40:37;;;;;;;43.33;14.83;;;;;;;;;;5048991;28;20728;-75
2021/01/05 00:43:43;;;;;;;44.40;14.93;;;;;;;;;;5040212;28;20292;-75
2021/01/05 00:46:48;;;;;;;42.57;14.90;;;;;;;;;;5046571;28;20210;-75
2021/01/05 00:49:53;;;;;;;43.40;14.37;;;;;;;;;;5047514;28;20201;-76
2021/01/05 00:52:58;;;;;;;46.10;15.33;;;;;;;;;;5071492;28;20250;-74
2021/01/05 00:56:03;;;;;;;42.70;15.23;;;;;;;;;;5059400;28;20203;-74
2021/01/05 00:59:08;;;;;;;53.93;16.90;;;;;;;;;;5066954;28;20257;-76
2021/01/05 01:02:14;;;;;;;46.57;15.37;;;;;;;;;;5036145;28;20361;-76
2021/01/05 01:05:22;;;;;;;52.23;16.23;;;;;;;;;;5043109;28;20224;-75
2021/01/05 01:08:28;;;;;;;44.87;15.23;;;;;;;;;;5042867;28;20242;-76
2021/01/05 01:11:37;;;;;;;45.20;14.50;;;;;;;;;;5036493;28;20307;-75
2021/01/05 01:14:45;;;;;;;46.77;15.30;;;;;;;;;;5035485;28;20582;-75
2021/01/05 01:17:52;;;;;;;48.33;15.80;;;;;;;;;;5052127;28;20310;-75
2021/01/05 01:20:58;;;;;;;44.77;14.97;;;;;;;;;;5038478;28;20219;-76
2021/01/05 01:24:06;;;;;;;46.57;15.43;;;;;;;;;;5035740;28;20207;-75
2021/01/05 01:27:11;;;;;;;48.23;16.67;;;;;;;;;;5050799;28;20682;-76
2021/01/05 01:30:18;;;;;;;53.30;17.03;;;;;;;;;;5052480;28;20273;-76
2021/01/05 01:33:32;;;;;;;47.33;15.10;;;;;;;;;;5046350;28;20702;-76
2021/01/05 01:36:41;;;;;;;45.20;15.20;;;;;;;;;;5052501;28;20199;-75
2021/01/05 01:39:47;;;;;;;42.73;15.20;;;;;;;;;;5049336;28;20329;-75
2021/01/05 01:42:57;;;;;;;50.07;16.63;;;;;;;;;;5038307;28;20766;-76
2021/01/05 01:46:02;;;;;;;47.70;15.73;;;;;;;;;;5051872;28;20580;-76
2021/01/05 01:49:15;;;;;;;51.57;16.63;;;;;;;;;;5059848;28;20265;-75
2021/01/05 01:52:25;;;;;;;54.83;17.20;;;;;;;;;;5044379;28;20629;-75
2021/01/05 01:55:35;;;;;;;50.97;16.23;;;;;;;;;;5042754;28;20615;-75
2021/01/05 01:58:54;;;;;;;48.70;16.73;;;;;;;;;;5042397;28;20262;-75
2021/01/05 02:02:01;;;;;;;49.70;15.00;;;;;;;;;;5035922;28;20302;-75
2021/01/05 02:05:15;;;;;;;49.10;15.80;;;;;;;;;;5042038;28;20192;-75
2021/01/05 02:08:30;;;;;;;43.33;15.37;;;;;;;;;;5033037;28;20210;-75
2021/01/05 02:11:51;;;;;;;52.40;15.87;;;;;;;;;;5052540;28;20239;-75
2021/01/05 02:15:00;;;;;;;49.17;14.93;;;;;;;;;;5038283;28;20215;-76
2021/01/05 02:18:23;;;;;;;53.63;15.17;;;;;;;;;;5042527;28;20251;-76
2021/01/05 02:21:32;;;;;;;45.37;14.97;;;;;;;;;;5029952;28;20703;-76
2021/01/05 02:24:44;;;;;;;46.17;15.30;;;;;;;;;;5051558;28;20235;-76
2021/01/05 02:27:52;;;;;;;47.40;14.37;;;;;;;;;;5044340;28;20250;-76
2021/01/05 02:31:00;;;;;;;45.80;15.10;;;;;;;;;;5051258;28;20207;-76
2021/01/05 02:34:07;;;;;;;51.00;15.73;;;;;;;;;;5044486;28;20262;-76
2021/01/05 02:37:16;;;;;;;48.30;15.30;;;;;;;;;;5043446;28;20278;-76
2021/01/05 02:40:48;;;;;;;54.93;15.40;;;;;;;;;;5042724;28;20222;-76
2021/01/05 02:44:29;;;;;;;46.57;15.53;;;;;;;;;;5049302;28;20210;-76
2021/01/05 02:48:08;;;;;;;45.10;15.13;;;;;;;;;;5042991;28;20239;-75
2021/01/05 02:51:48;;;;;;;48.33;15.87;;;;;;;;;;5053511;28;20274;-74
2021/01/05 02:55:31;;;;;;;51.37;16.83;;;;;;;;;;5070837;28;20583;-75
2021/01/05 02:59:26;;;;;;;51.80;16.47;;;;;;;;;;5060007;28;20207;-76
2021/01/05 03:03:13;;;;;;;53.50;17.20;;;;;;;;;;5050706;28;20274;-75
2021/01/05 03:06:44;;;;;;;46.17;15.57;;;;;;;;;;5033882;28;20203;-75
2021/01/05 03:10:31;;;;;;;53.17;16.47;;;;;;;;;;5048672;28;20302;-75
2021/01/05 03:13:57;;;;;;;47.90;15.93;;;;;;;;;;5040548;28;20243;-75
2021/01/05 03:17:23;;;;;;;56.37;16.97;;;;;;;;;;5040319;28;20208;-74
2021/01/05 03:20:49;;;;;;;55.40;16.87;;;;;;;;;;5039834;28;20218;-75
2021/01/05 03:24:14;;;;;;;62.30;18.63;;;;;;;;;;5045749;28;20211;-75
2021/01/05 03:27:38;;;;;;;58.27;17.80;;;;;;;;;;5044914;28;20686;-75
2021/01/05 03:31:04;;;;;;;54.90;17.27;;;;;;;;;;5047506;28;20222;-75
2021/01/05 03:34:42;;;;;;;57.93;16.77;;;;;;;;;;5025421;28;20251;-75
2021/01/05 03:38:06;;;;;;;59.67;16.67;;;;;;;;;;5050343;28;20246;-76
2021/01/05 03:41:31;;;;;;;53.87;17.50;;;;;;;;;;5037878;28;20274;-76
2021/01/05 03:44:54;;;;;;;62.43;17.40;;;;;;;;;;5033172;28;20218;-76
2021/01/05 03:48:18;;;;;;;57.10;17.87;;;;;;;;;;5034424;28;20211;-75
2021/01/05 03:51:42;;;;;;;59.17;17.10;;;;;;;;;;5029895;28;20780;-76
2021/01/05 03:55:08;;;;;;;64.50;18.47;;;;;;;;;;5031377;28;20214;-76
2021/01/05 03:58:32;;;;;;;64.80;19.47;;;;;;;;;;5037409;28;20678;-76
2021/01/05 04:01:56;;;;;;;59.67;18.60;;;;;;;;;;5033533;28;20301;-76
2021/01/05 04:05:01;;;;;;;68.07;19.70;;;;;;;;;;5038264;28;20720;-76
2021/01/05 04:08:06;;;;;;;70.83;19.90;;;;;;;;;;5035899;28;20202;-75
2021/01/05 04:11:14;;;;;;;70.50;19.53;;;;;;;;;;5042056;28;20234;-75
2021/01/05 04:14:20;;;;;;;75.93;20.80;;;;;;;;;;5033521;28;20219;-76
2021/01/05 04:17:25;;;;;;;79.97;20.90;;;;;;;;;;5033527;28;20253;-76
2021/01/05 04:20:30;;;;;;;82.90;20.83;;;;;;;;;;5042659;28;20317;-76
2021/01/05 04:23:35;;;;;;;76.03;21.07;;;;;;;;;;5058089;28;20226;-75
2021/01/05 04:26:40;;;;;;;79.07;21.37;;;;;;;;;;5041939;28;20572;-75
2021/01/05 04:29:45;;;;;;;77.97;20.80;;;;;;;;;;5040767;28;20235;-75
2021/01/05 04:32:50;;;;;;;73.73;19.47;;;;;;;;;;5042478;28;20234;-76
2021/01/05 04:35:54;;;;;;;73.17;19.67;;;;;;;;;;5042774;28;20246;-76
2021/01/05 04:39:02;;;;;;;69.30;20.07;;;;;;;;;;5048843;28;20288;-75
2021/01/05 04:42:13;;;;;;;69.77;19.60;;;;;;;;;;5040016;28;20295;-76
2021/01/05 04:45:23;;;;;;;64.07;19.40;;;;;;;;;;5041456;28;20269;-76
2021/01/05 04:48:38;;;;;;;61.87;19.77;;;;;;;;;;5037578;28;20265;-76
2021/01/05 04:51:46;;;;;;;71.50;20.27;;;;;;;;;;5040558;28;20713;-76
2021/01/05 04:54:55;;;;;;;78.43;21.10;;;;;;;;;;5043657;28;20223;-76
2021/01/05 04:58:04;;;;;;;83.03;21.50;;;;;;;;;;5044167;28;20204;-76
2021/01/05 05:01:14;;;;;;;69.10;19.23;;;;;;;;;;5031864;28;20219;-76
2021/01/05 05:04:22;;;;;;;70.60;20.33;;;;;;;;;;5034922;28;20206;-76
2021/01/05 05:07:29;;;;;;;87.20;22.20;;;;;;;;;;5051260;28;20250;-76
2021/01/05 05:10:37;;;;;;;72.17;21.50;;;;;;;;;;5029098;28;20304;-76
2021/01/05 05:13:48;;;;;;;78.13;22.57;;;;;;;;;;5032606;28;20342;-75
2021/01/05 05:17:03;;;;;;;86.77;23.50;;;;;;;;;;5045709;28;20207;-76
2021/01/05 05:20:16;;;;;;;83.57;21.47;;;;;;;;;;5048626;28;20261;-75
2021/01/05 05:23:29;;;;;;;83.30;22.93;;;;;;;;;;5035245;28;20306;-76
2021/01/05 05:26:38;;;;;;;82.30;22.27;;;;;;;;;;5032955;28;20235;-75
2021/01/05 05:29:45;;;;;;;79.23;22.70;;;;;;;;;;5042943;28;20207;-75
2021/01/05 05:32:53;;;;;;;81.83;22.67;;;;;;;;;;5050100;28;20227;-75
2021/01/05 05:36:09;;;;;;;87.70;23.80;;;;;;;;;;5046631;28;20222;-75
2021/01/05 05:39:32;;;;;;;86.67;22.93;;;;;;;;;;5046429;28;20212;-74
2021/01/05 05:42:43;;;;;;;88.57;23.23;;;;;;;;;;5029056;28;20262;-76
2021/01/05 05:45:49;;;;;;;77.40;20.67;;;;;;;;;;5047102;28;20207;-76
2021/01/05 05:48:58;;;;;;;87.37;24.40;;;;;;;;;;5043809;28;20214;-77
2021/01/05 05:52:03;;;;;;;87.70;23.57;;;;;;;;;;5043727;28;20711;-76
2021/01/05 05:55:20;;;;;;;77.37;20.70;;;;;;;;;;5039801;28;20251;-77
2021/01/05 05:58:26;;;;;;;88.87;22.80;;;;;;;;;;5054141;28;20695;-77
2021/01/05 06:01:35;;;;;;;92.93;23.63;;;;;;;;;;5047081;28;20251;-76
2021/01/05 06:04:41;;;;;;;84.77;21.97;;;;;;;;;;5039761;28;20218;-76
2021/01/05 06:07:45;;;;;;;90.23;24.03;;;;;;;;;;5042646;28;20323;-76
2021/01/05 06:10:51;;;;;;;77.27;21.97;;;;;;;;;;5033194;28;20250;-77
2021/01/05 06:13:55;;;;;;;93.97;23.80;;;;;;;;;;5051955;28;20206;-76
2021/01/05 06:17:00;;;;;;;84.00;22.47;;;;;;;;;;5044642;28;20674;-76
2021/01/05 06:20:07;;;;;;;90.80;23.23;;;;;;;;;;5043938;28;20218;-76
2021/01/05 06:23:12;;;;;;;82.73;23.57;;;;;;;;;;5031424;28;20577;-76
2021/01/05 06:26:17;;;;;;;84.27;23.07;;;;;;;;;;5031783;28;20576;-76
2021/01/05 06:29:22;;;;;;;88.13;22.53;;;;;;;;;;5031496;28;20265;-76
2021/01/05 06:32:27;;;;;;;81.57;22.80;;;;;;;;;;5041080;28;20230;-76
2021/01/05 06:35:32;;;;;;;84.73;21.00;;;;;;;;;;5049956;28;20298;-76
2021/01/05 06:38:36;;;;;;;75.53;21.03;;;;;;;;;;5042768;28;20678;-76
2021/01/05 06:41:41;;;;;;;84.77;22.27;;;;;;;;;;5044855;28;20231;-76
2021/01/05 06:44:46;;;;;;;78.07;22.73;;;;;;;;;;5051305;28;20210;-76
2021/01/05 06:47:53;;;;;;;86.23;34.00;;;;;;;;;;5074829;28;20206;-77
2021/01/05 06:50:59;;;;;;;73.00;20.67;;;;;;;;;;5057072;28;20191;-76
2021/01/05 06:54:10;;;;;;;69.57;21.03;;;;;;;;;;5067143;28;20195;-75
2021/01/05 06:57:15;;;;;;;84.37;23.03;;;;;;;;;;5047173;28;20195;-76
2021/01/05 07:00:21;;;;;;;76.33;21.13;;;;;;;;;;5044379;28;20601;-76
2021/01/05 07:03:26;;;;;;;76.13;20.50;;;;;;;;;;5049214;28;20300;-75
2021/01/05 07:06:33;;;;;;;73.00;20.40;;;;;;;;;;5063996;28;20203;-75
2021/01/05 07:09:38;;;;;;;65.47;19.60;;;;;;;;;;5048332;28;20223;-75
2021/01/05 07:12:44;;;;;;;76.50;20.80;;;;;;;;;;5044879;28;20281;-76
2021/01/05 07:15:49;;;;;;;74.93;20.40;;;;;;;;;;5033250;28;20255;-76
2021/01/05 07:18:53;;;;;;;77.47;21.23;;;;;;;;;;5033399;28;20242;-76
2021/01/05 07:21:59;;;;;;;72.00;20.70;;;;;;;;;;5039510;28;20277;-76
2021/01/05 07:25:03;;;;;;;77.90;22.77;;;;;;;;;;5025911;28;20211;-76
2021/01/05 07:28:08;;;;;;;74.37;21.33;;;;;;;;;;5035969;28;20207;-76
2021/01/05 07:31:13;;;;;;;73.83;21.90;;;;;;;;;;5033215;28;20199;-77
2021/01/05 07:34:18;;;;;;;71.70;21.43;;;;;;;;;;5045567;28;20204;-76
2021/01/05 07:37:25;;;;;;;82.93;25.23;;;;;;;;;;5036557;28;20211;-75
2021/01/05 07:40:30;;;;;;;79.83;23.50;;;;;;;;;;5041195;28;20242;-76
2021/01/05 07:43:36;;;;;;;71.07;20.93;;;;;;;;;;5055994;28;20230;-76
2021/01/05 07:46:41;;;;;;;72.53;21.37;;;;;;;;;;5065405;28;20238;-76
2021/01/05 07:49:46;;;;;;;70.73;21.47;;;;;;;;;;5037481;28;20246;-75
2021/01/05 07:52:52;;;;;;;74.43;23.23;;;;;;;;;;5036051;28;20226;-75
2021/01/05 07:55:58;;;;;;;67.23;21.20;;;;;;;;;;5029093;28;20319;-74
2021/01/05 07:59:03;;;;;;;67.83;20.50;;;;;;;;;;5031715;28;20195;-76
2021/01/05 08:02:08;;;;;;;79.33;22.33;;;;;;;;;;5040824;28;20601;-76
2021/01/05 08:05:13;;;;;;;77.67;22.37;;;;;;;;;;5043736;28;20212;-76
2021/01/05 08:08:18;;;;;;;70.33;20.93;;;;;;;;;;5029261;28;20222;-76
2021/01/05 08:11:23;;;;;;;75.87;21.47;;;;;;;;;;5031925;28;20585;-75
2021/01/05 08:14:28;;;;;;;85.10;23.50;;;;;;;;;;5035017;28;20266;-74
2021/01/05 08:17:32;;;;;;;76.50;21.30;;;;;;;;;;5027221;28;20234;-76
2021/01/05 08:20:37;;;;;;;74.87;22.33;;;;;;;;;;5039911;28;20265;-76
2021/01/05 08:23:45;;;;;;;73.43;22.37;;;;;;;;;;5032493;28;20204;-75
2021/01/05 08:26:50;;;;;;;69.87;21.03;;;;;;;;;;5041897;28;20210;-75
2021/01/05 08:29:55;;;;;;;70.50;20.83;;;;;;;;;;5039229;28;20203;-75
2021/01/05 08:33:00;;;;;;;68.23;20.53;;;;;;;;;;5044910;28;20288;-75
2021/01/05 08:36:07;;;;;;;72.77;21.30;;;;;;;;;;5030058;28;20217;-75
2021/01/05 08:39:13;;;;;;;76.13;22.73;;;;;;;;;;5034690;28;20226;-75
2021/01/05 08:42:18;;;;;;;80.37;21.70;;;;;;;;;;5045000;28;20222;-75
2021/01/05 08:45:23;;;;;;;82.20;22.60;;;;;;;;;;5043381;28;20683;-75
2021/01/05 08:48:28;;;;;;;74.80;21.33;;;;;;;;;;5049693;28;20211;-75
2021/01/05 08:51:33;;;;;;;70.90;21.07;;;;;;;;;;5061535;28;20239;-75
2021/01/05 08:54:39;;;;;;;74.20;21.27;;;;;;;;;;5040590;28;20239;-73
2021/01/05 08:57:44;;;;;;;66.63;20.90;;;;;;;;;;5051669;28;20184;-74
2021/01/05 09:00:49;;;;;;;77.33;22.07;;;;;;;;;;5026736;28;20275;-74
2021/01/05 09:03:53;;;;;;;72.20;21.93;;;;;;;;;;5036409;28;20322;-73
2021/01/05 09:06:58;;;;;;;70.40;20.93;;;;;;;;;;5034454;28;20257;-74
2021/01/05 09:10:04;;;;;;;74.33;21.13;;;;;;;;;;5031101;28;20208;-74
2021/01/05 09:13:08;;;;;;;72.07;20.53;;;;;;;;;;5031513;28;20278;-74
2021/01/05 09:16:19;;;;;;;74.77;23.27;;;;;;;;;;5027314;28;20270;-74
2021/01/05 09:19:23;;;;;;;68.80;21.20;;;;;;;;;;5023053;28;20222;-74
2021/01/05 09:22:28;;;;;;;64.67;20.63;;;;;;;;;;5027173;28;20234;-75
2021/01/05 09:25:34;;;;;;;61.13;20.10;;;;;;;;;;5019898;28;20203;-75
2021/01/05 09:28:38;;;;;;;62.10;20.03;;;;;;;;;;5031672;28;20212;-75
2021/01/05 09:31:43;;;;;;;69.30;20.77;;;;;;;;;;5015598;28;20259;-76
2021/01/05 09:34:48;;;;;;;64.10;20.83;;;;;;;;;;5037798;28;20607;-75
2021/01/05 09:37:53;;;;;;;60.97;19.07;;;;;;;;;;5043089;28;20291;-75
2021/01/05 09:40:58;;;;;;;57.33;18.33;;;;;;;;;;5046117;28;20222;-75
2021/01/05 09:44:03;;;;;;;64.27;21.37;;;;;;;;;;5028979;28;20730;-75
2021/01/05 09:47:07;;;;;;;70.37;23.03;;;;;;;;;;5031264;28;21823;-75
2021/01/05 09:50:13;;;;;;;86.20;28.23;;;;;;;;;;5025511;28;20204;-76
2021/01/05 09:53:18;;;;;;;103.87;33.53;;;;;;;;;;5028101;28;20282;-75
2021/01/05 09:56:23;;;;;;;57.87;19.33;;;;;;;;;;5023828;28;20271;-75
2021/01/05 09:59:28;;;;;;;62.50;20.37;;;;;;;;;;5023513;28;20219;-75
2021/01/05 10:02:33;;;;;;;64.40;20.90;;;;;;;;;;5034142;28;20227;-75
2021/01/05 10:05:37;;;;;;;64.50;19.93;;;;;;;;;;5024628;28;20254;-75
2021/01/05 10:08:42;;;;;;;119.63;37.67;;;;;;;;;;5022864;28;20228;-76
2021/01/05 10:11:48;;;;;;;65.53;23.20;;;;;;;;;;5032261;28;20298;-76
2021/01/05 10:14:53;;;;;;;55.40;19.50;;;;;;;;;;5028798;28;20228;-78
2021/01/05 10:17:58;;;;;;;60.30;25.23;;;;;;;;;;5021857;28;20610;-76
2021/01/05 10:21:02;;;;;;;51.87;18.27;;;;;;;;;;5025757;28;20227;-76
2021/01/05 10:24:08;;;;;;;48.33;17.30;;;;;;;;;;5033838;28;20610;-76
2021/01/05 10:27:14;;;;;;;46.23;16.23;;;;;;;;;;5025539;28;20199;-75
2021/01/05 10:30:19;;;;;;;42.57;16.87;;;;;;;;;;5023738;28;20699;-76
2021/01/05 10:33:24;;;;;;;50.43;18.17;;;;;;;;;;5019970;28;20231;-75
2021/01/05 10:36:29;;;;;;;53.03;17.77;;;;;;;;;;5017521;28;20279;-75
2021/01/05 10:39:43;;;;;;;46.93;16.03;;;;;;;;;;5025016;28;20204;-75
2021/01/05 10:42:52;;;;;;;50.10;16.20;;;;;;;;;;5029024;28;20262;-75
2021/01/05 10:45:57;;;;;;;52.77;16.27;;;;;;;;;;5030769;28;20274;-75
2021/01/05 10:49:44;;;;;;;43.57;15.17;;;;;;;;;;5048890;28;20230;-75
2021/01/05 10:52:48;;;;;;;49.40;15.70;;;;;;;;;;5047667;28;20230;-74
2021/01/05 10:55:53;;;;;;;46.43;15.93;;;;;;;;;;5034264;28;20220;-75
2021/01/05 10:58:59;;;;;;;41.87;14.53;;;;;;;;;;5028215;28;20743;-76
2021/01/05 11:02:08;;;;;;;46.90;15.33;;;;;;;;;;5023198;28;20243;-76
2021/01/05 11:05:14;;;;;;;45.07;15.90;;;;;;;;;;5028021;28;20222;-75
2021/01/05 11:08:19;;;;;;;52.00;16.53;;;;;;;;;;5029821;28;20240;-76
2021/01/05 11:11:23;;;;;;;46.10;15.53;;;;;;;;;;5020020;28;20231;-75
2021/01/05 11:14:29;;;;;;;54.87;18.20;;;;;;;;;;5016973;28;20278;-76
2021/01/05 11:17:34;;;;;;;53.00;17.13;;;;;;;;;;5030899;28;20203;-74
2021/01/05 11:20:41;;;;;;;50.63;17.17;;;;;;;;;;5024552;28;20592;-75
2021/01/05 11:23:46;;;;;;;47.57;16.23;;;;;;;;;;5023906;28;20259;-75
2021/01/05 11:26:51;;;;;;;49.80;17.07;;;;;;;;;;5016817;28;20255;-76
2021/01/05 11:29:57;;;;;;;47.90;16.20;;;;;;;;;;5034010;28;20694;-75
2021/01/05 11:33:03;;;;;;;52.90;16.87;;;;;;;;;;5030250;28;20265;-75
2021/01/05 11:36:10;;;;;;;52.60;16.90;;;;;;;;;;5032146;28;20220;-75
2021/01/05 11:39:15;;;;;;;45.83;16.37;;;;;;;;;;5021582;28;20214;-75
2021/01/05 11:42:21;;;;;;;55.30;18.33;;;;;;;;;;5034274;28;20777;-74
2021/01/05 11:45:27;;;;;;;100.67;31.97;;;;;;;;;;5042901;28;20306;-75
2021/01/05 11:48:31;;;;;;;59.37;19.03;;;;;;;;;;5033826;28;20341;-75
2021/01/05 11:51:37;;;;;;;48.57;17.47;;;;;;;;;;5028102;28;20224;-75
2021/01/05 11:54:43;;;;;;;56.77;19.27;;;;;;;;;;5040642;28;20214;-75
2021/01/05 11:57:48;;;;;;;51.87;18.80;;;;;;;;;;5039423;28;20246;-75
2021/01/05 12:00:54;;;;;;;58.07;17.97;;;;;;;;;;5033294;28;20243;-75
2021/01/05 12:03:58;;;;;;;51.87;15.97;;;;;;;;;;5038915;28;20238;-74
2021/01/05 12:07:03;;;;;;;54.37;17.63;;;;;;;;;;5048678;28;20574;-75
2021/01/05 12:10:09;;;;;;;52.10;17.63;;;;;;;;;;5050522;28;20230;-75
2021/01/05 12:13:13;;;;;;;54.67;17.83;;;;;;;;;;5032636;28;20296;-75
2021/01/05 12:16:26;;;;;;;56.33;17.53;;;;;;;;;;5033128;28;20766;-75
2021/01/05 12:19:31;;;;;;;52.87;16.20;;;;;;;;;;5034499;28;20219;-75
2021/01/05 12:22:36;;;;;;;56.73;18.57;;;;;;;;;;5028589;28;20219;-75
2021/01/05 12:25:44;;;;;;;55.77;17.97;;;;;;;;;;5037405;28;20299;-74
2021/01/05 12:28:49;;;;;;;56.97;18.27;;;;;;;;;;5025649;28;20242;-75
2021/01/05 12:31:56;;;;;;;56.97;19.03;;;;;;;;;;5025053;28;20269;-75
2021/01/05 12:35:00;;;;;;;66.73;17.87;;;;;;;;;;5019649;28;20232;-75
2021/01/05 12:38:04;;;;;;;57.47;18.57;;;;;;;;;;5022482;28;20250;-75
2021/01/05 12:41:10;;;;;;;58.03;18.87;;;;;;;;;;5024756;28;20314;-76
2021/01/05 12:44:15;;;;;;;60.13;18.40;;;;;;;;;;5021902;28;20237;-75
2021/01/05 12:47:21;;;;;;;58.27;17.60;;;;;;;;;;5029031;28;20297;-75
2021/01/05 12:50:26;;;;;;;57.30;17.80;;;;;;;;;;5045024;28;20709;-75
2021/01/05 12:53:31;;;;;;;55.57;18.03;;;;;;;;;;5048984;28;20235;-75
2021/01/05 12:56:35;;;;;;;57.70;16.70;;;;;;;;;;5036287;28;20355;-75
2021/01/05 12:59:41;;;;;;;60.40;18.23;;;;;;;;;;5011774;28;20243;-74
2021/01/05 13:02:47;;;;;;;71.10;18.70;;;;;;;;;;5028729;28;20227;-74
2021/01/05 13:05:51;;;;;;;59.73;18.60;;;;;;;;;;5010895;28;20239;-74
2021/01/05 13:08:56;;;;;;;60.43;19.00;;;;;;;;;;5011219;28;21062;-74
2021/01/05 13:12:02;;;;;;;61.60;19.30;;;;;;;;;;5011740;28;20236;-75
2021/01/05 13:15:08;;;;;;;69.07;19.00;;;;;;;;;;5011617;28;20243;-75
2021/01/05 13:18:13;;;;;;;58.77;18.50;;;;;;;;;;5012908;28;20212;-74
2021/01/05 13:21:26;;;;;;;66.90;20.20;;;;;;;;;;5019868;28;20215;-73
2021/01/05 13:24:31;;;;;;;59.17;18.77;;;;;;;;;;5023258;28;20281;-74
2021/01/05 13:27:37;;;;;;;59.13;19.77;;;;;;;;;;5014827;28;20207;-73
2021/01/05 13:30:41;;;;;;;68.07;19.17;;;;;;;;;;5033536;28;20211;-74
2021/01/05 13:33:47;;;;;;;68.83;19.67;;;;;;;;;;5032061;28;20200;-74
2021/01/05 13:36:52;;;;;;;68.93;19.93;;;;;;;;;;5012822;28;20260;-74
2021/01/05 13:40:02;;;;;;;70.07;19.90;;;;;;;;;;5021492;28;20633;-73
2021/01/05 13:43:07;;;;;;;70.47;20.33;;;;;;;;;;5016774;28;20243;-75
2021/01/05 13:46:19;;;;;;;70.97;20.40;;;;;;;;;;5031439;28;20242;-74
2021/01/05 13:49:25;;;;;;;69.70;21.50;;;;;;;;;;5014066;28;20235;-74
2021/01/05 13:52:29;;;;;;;65.73;19.17;;;;;;;;;;5028572;28;20702;-74
2021/01/05 13:55:34;;;;;;;69.43;21.47;;;;;;;;;;5021681;28;20223;-74
2021/01/05 13:58:39;;;;;;;67.57;20.83;;;;;;;;;;5035349;28;20204;-75
2021/01/05 14:01:43;;;;;;;73.00;20.43;;;;;;;;;;5038942;28;20255;-74
2021/01/05 14:04:50;;;;;;;71.23;21.30;;;;;;;;;;5041143;28;20208;-74
2021/01/05 14:07:55;;;;;;;66.37;20.23;;;;;;;;;;5021534;28;20208;-74
2021/01/05 14:11:01;;;;;;;64.53;19.83;;;;;;;;;;5037130;28;20247;-74
2021/01/05 14:14:05;;;;;;;68.07;20.37;;;;;;;;;;5041420;28;20207;-73
2021/01/05 14:17:13;;;;;;;66.57;20.40;;;;;;;;;;5056026;28;20698;-74
2021/01/05 14:20:19;;;;;;;69.63;20.53;;;;;;;;;;5041977;28;20215;-74
2021/01/05 14:23:23;;;;;;;67.63;21.23;;;;;;;;;;5039326;28;20246;-74
2021/01/05 14:26:56;;;;;;;68.23;20.33;;;;;;;;;;5056256;28;20302;-74
2021/01/05 14:30:01;;;;;;;65.70;21.43;;;;;;;;;;5032410;28;20224;-74
2021/01/05 14:33:07;;;;;;;65.40;19.30;;;;;;;;;;5036916;28;20298;-77
2021/01/05 14:36:18;;;;;;;64.90;21.00;;;;;;;;;;5037764;28;20219;-74
2021/01/05 14:39:23;;;;;;;67.03;21.40;;;;;;;;;;5051769;28;20191;-77
2021/01/05 14:42:27;;;;;;;66.43;19.90;;;;;;;;;;5041881;28;20234;-77
2021/01/05 14:45:32;;;;;;;69.27;19.60;;;;;;;;;;5049466;28;20245;-76
2021/01/05 14:48:37;;;;;;;74.70;22.37;;;;;;;;;;5066148;28;20211;-76
2021/01/05 14:51:47;;;;;;;60.87;19.80;;;;;;;;;;5063221;28;20298;-74
2021/01/05 14:54:53;;;;;;;71.83;19.37;;;;;;;;;;5058770;28;20211;-76
2021/01/05 14:57:58;;;;;;;64.60;19.63;;;;;;;;;;5036659;28;20242;-75
2021/01/05 15:01:03;;;;;;;65.67;20.97;;;;;;;;;;5025063;28;20206;-75
2021/01/05 15:04:09;;;;;;;65.00;20.37;;;;;;;;;;5045000;28;20194;-75
2021/01/05 15:07:14;;;;;;;78.60;24.30;;;;;;;;;;5032753;28;20243;-75
2021/01/05 15:10:36;;;;;;;64.67;21.07;;;;;;;;;;5046938;28;20215;-74
2021/01/05 15:13:41;;;;;;;69.63;21.13;;;;;;;;;;5042920;28;20215;-74
2021/01/05 15:16:46;;;;;;;69.07;22.07;;;;;;;;;;5037086;28;20302;-75
2021/01/05 15:19:51;;;;;;;70.40;22.07;;;;;;;;;;5039368;28;20208;-74
2021/01/05 15:22:55;;;;;;;68.33;19.97;;;;;;;;;;5044630;28;20234;-75
2021/01/05 15:26:01;;;;;;;69.03;21.73;;;;;;;;;;5035976;28;20242;-76
2021/01/05 15:29:07;;;;;;;63.43;20.97;;;;;;;;;;5048320;28;20590;-76
2021/01/05 15:32:12;;;;;;;61.87;20.07;;;;;;;;;;5037045;28;20273;-78
2021/01/05 15:35:19;;;;;;;64.50;19.97;;;;;;;;;;5046990;28;20261;-78
2021/01/05 15:38:23;;;;;;;61.83;19.33;;;;;;;;;;5051848;28;20211;-78
2021/01/05 15:41:29;;;;;;;64.47;20.40;;;;;;;;;;5055040;28;20341;-78
2021/01/05 15:44:35;;;;;;;69.80;21.83;;;;;;;;;;5046873;28;20211;-79
2021/01/05 15:47:40;;;;;;;70.13;22.00;;;;;;;;;;5039500;28;20261;-78
2021/01/05 15:50:44;;;;;;;65.33;21.23;;;;;;;;;;5038231;28;20309;-76
2021/01/05 15:53:49;;;;;;;68.10;23.43;;;;;;;;;;5052151;28;20233;-76
2021/01/05 15:56:56;;;;;;;72.33;23.37;;;;;;;;;;5032450;28;20219;-76
2021/01/05 16:00:01;;;;;;;68.03;22.33;;;;;;;;;;5036931;28;20563;-76
2021/01/05 16:03:06;;;;;;;62.27;22.37;;;;;;;;;;5041301;28;20224;-75
2021/01/05 16:06:21;;;;;;;89.27;27.40;;;;;;;;;;5040073;28;20257;-76
2021/01/05 16:09:26;;;;;;;67.57;20.97;;;;;;;;;;5034447;28;20223;-77
2021/01/05 16:12:31;;;;;;;68.57;21.13;;;;;;;;;;5018515;28;20255;-76
2021/01/05 16:15:36;;;;;;;76.20;24.20;;;;;;;;;;5032348;28;20739;-76
2021/01/05 16:18:40;;;;;;;72.67;25.40;;;;;;;;;;5033140;28;20345;-76
2021/01/05 16:21:49;;;;;;;74.30;25.03;;;;;;;;;;5019934;28;20232;-76
2021/01/05 16:24:54;;;;;;;69.40;24.30;;;;;;;;;;5014566;28;20641;-76
2021/01/05 16:28:00;;;;;;;72.63;24.20;;;;;;;;;;5038020;28;20260;-76
2021/01/05 16:31:05;;;;;;;66.40;22.57;;;;;;;;;;5032646;28;20203;-75
2021/01/05 16:34:10;;;;;;;65.53;21.70;;;;;;;;;;5039967;28;20655;-77
2021/01/05 16:37:14;;;;;;;66.20;21.47;;;;;;;;;;5034509;28;20215;-76
2021/01/05 16:40:22;;;;;;;69.63;23.10;;;;;;;;;;5036572;28;20211;-75
2021/01/05 16:43:28;;;;;;;61.50;20.47;;;;;;;;;;5038545;28;20343;-76
2021/01/05 16:46:38;;;;;;;63.57;19.47;;;;;;;;;;5047102;28;20263;-77
2021/01/05 16:49:43;;;;;;;61.40;20.83;;;;;;;;;;5046680;28;20567;-77
2021/01/05 16:52:49;;;;;;;62.60;21.47;;;;;;;;;;5052897;28;20230;-76
2021/01/05 16:55:54;;;;;;;71.33;22.27;;;;;;;;;;5057742;28;20217;-77
2021/01/05 16:59:02;;;;;;;62.37;20.97;;;;;;;;;;5064165;28;20251;-78
2021/01/05 17:02:09;;;;;;;63.47;21.17;;;;;;;;;;5056250;28;20222;-78
2021/01/05 17:05:14;;;;;;;68.17;21.77;;;;;;;;;;5033945;28;20344;-82
2021/01/05 17:08:19;;;;;;;63.87;22.03;;;;;;;;;;5027071;28;20323;-80
2021/01/05 17:11:24;;;;;;;65.20;21.63;;;;;;;;;;5012422;28;20798;-77
2021/01/05 17:14:29;;;;;;;68.43;22.17;;;;;;;;;;5022669;28;20222;-78
2021/01/05 17:17:39;;;;;;;72.63;23.23;;;;;;;;;;5046057;28;20234;-77
2021/01/05 17:20:44;;;;;;;67.30;23.47;;;;;;;;;;5038847;28;20223;-76
2021/01/05 17:23:50;;;;;;;66.83;22.33;;;;;;;;;;5031555;28;20543;-78
2021/01/05 17:26:55;;;;;;;70.93;23.73;;;;;;;;;;5048985;28;20219;-77
2021/01/05 17:30:01;;;;;;;66.40;22.10;;;;;;;;;;5047801;28;20191;-77
2021/01/05 17:33:10;;;;;;;72.23;23.77;;;;;;;;;;5040420;28;20224;-77
2021/01/05 17:36:15;;;;;;;84.80;27.80;;;;;;;;;;5039913;28;20246;-78
2021/01/05 17:39:20;;;;;;;78.23;24.40;;;;;;;;;;5057109;28;20182;-77
2021/01/05 17:42:26;;;;;;;65.70;22.60;;;;;;;;;;5056769;28;20609;-77
2021/01/05 17:45:32;;;;;;;68.13;22.03;;;;;;;;;;5052967;28;20241;-77
2021/01/05 17:48:39;;;;;;;64.20;21.07;;;;;;;;;;5065059;28;20199;-78
2021/01/05 17:51:44;;;;;;;66.10;21.60;;;;;;;;;;5062739;28;20239;-77
2021/01/05 17:55:16;;;;;;;70.00;21.07;;;;;;;;;;5053910;28;20187;-77
2021/01/05 17:58:23;;;;;;;67.13;20.87;;;;;;;;;;5056904;28;20192;-78
2021/01/05 18:01:30;;;;;;;61.10;19.53;;;;;;;;;;5045593;28;20188;-78
2021/01/05 18:04:36;;;;;;;71.63;20.50;;;;;;;;;;5053778;28;20203;-78
2021/01/05 18:07:41;;;;;;;62.97;19.47;;;;;;;;;;5068591;28;20651;-77
2021/01/05 18:10:48;;;;;;;62.17;19.10;;;;;;;;;;5055583;28;20288;-76
2021/01/05 18:13:52;;;;;;;64.70;20.93;;;;;;;;;;5048767;28;20206;-76